Time;durP1;ratioP1;P1;durP2;ratioP2;P2;SDS_P1;SDS_P2;PMS_P1;PMS_P2;Temp;Humidity;BMP_temperature;BMP_pressure;BME280_temperature;BME280_humidity;BME280_pressure;Samples;Min_cycle;Max_cycle;Signal;HPM_P1;HPM_P2
2023/05/22 00:00:37;;;;;;;9.43;8.18;;;;;;;;;;5007848;28;20111;-64
2023/05/22 00:03:04;;;;;;;10.18;8.63;;;;;;;;;;5002747;28;20033;-64
2023/05/22 00:05:30;;;;;;;11.05;8.40;;;;;;;;;;5008465;28;20053;-64
2023/05/22 00:07:55;;;;;;;13.90;9.48;;;;;;;;;;5008949;28;20046;-64
2023/05/22 00:10:21;;;;;;;10.18;8.43;;;;;;;;;;5005898;28;20123;-63
2023/05/22 00:12:47;;;;;;;10.48;9.00;;;;;;;;;;5001162;28;20524;-64
2023/05/22 00:15:13;;;;;;;10.85;8.75;;;;;;;;;;4999979;28;20037;-64
2023/05/22 00:17:38;;;;;;;10.88;9.45;;;;;;;;;;5007677;28;20493;-64
2023/05/22 00:20:09;;;;;;;13.35;9.52;;;;;;;;;;5008425;28;20440;-64
2023/05/22 00:22:36;;;;;;;10.68;9.57;;;;;;;;;;5008506;28;20041;-63
2023/05/22 00:25:06;;;;;;;11.65;8.88;;;;;;;;;;5008397;28;20058;-64
2023/05/22 00:27:32;;;;;;;10.43;8.18;;;;;;;;;;5011701;28;20492;-63
2023/05/22 00:29:58;;;;;;;12.20;9.05;;;;;;;;;;4985551;28;20552;-64
2023/05/22 00:32:25;;;;;;;12.52;9.45;;;;;;;;;;5008462;28;20061;-64
2023/05/22 00:34:51;;;;;;;11.02;9.60;;;;;;;;;;4991442;28;20049;-64
2023/05/22 00:37:18;;;;;;;10.30;8.23;;;;;;;;;;4985146;28;20049;-63
2023/05/22 00:39:44;;;;;;;12.85;9.38;;;;;;;;;;5007787;28;21151;-63
2023/05/22 00:42:11;;;;;;;14.02;9.25;;;;;;;;;;5007788;28;20068;-61
2023/05/22 00:44:37;;;;;;;12.73;7.90;;;;;;;;;;4987817;28;20076;-63
2023/05/22 00:47:02;;;;;;;11.57;8.95;;;;;;;;;;4985624;28;20069;-63
2023/05/22 00:49:28;;;;;;;9.98;8.98;;;;;;;;;;4988075;28;20061;-63
2023/05/22 00:51:54;;;;;;;12.90;9.30;;;;;;;;;;5005188;28;20116;-62
2023/05/22 00:54:19;;;;;;;10.27;8.85;;;;;;;;;;4985485;28;20037;-63
2023/05/22 00:56:46;;;;;;;12.80;9.32;;;;;;;;;;5006041;28;20111;-64
2023/05/22 00:59:12;;;;;;;10.88;8.63;;;;;;;;;;5001364;28;20057;-63
2023/05/22 01:01:40;;;;;;;10.90;8.55;;;;;;;;;;4984489;28;20670;-63
2023/05/22 01:04:09;;;;;;;19.48;8.95;;;;;;;;;;5004637;28;20038;-63
2023/05/22 01:06:35;;;;;;;12.88;8.93;;;;;;;;;;4982559;28;20064;-64
2023/05/22 01:09:02;;;;;;;16.10;8.52;;;;;;;;;;4994724;28;20585;-63
2023/05/22 01:11:39;;;;;;;15.57;9.70;;;;;;;;;;4986686;28;20048;-63
2023/05/22 01:14:10;;;;;;;10.95;8.82;;;;;;;;;;4981078;28;20116;-63
2023/05/22 01:16:47;;;;;;;11.88;9.30;;;;;;;;;;4982571;28;20105;-63
2023/05/22 01:19:18;;;;;;;11.38;8.43;;;;;;;;;;4983772;28;20034;-62
2023/05/22 01:22:09;;;;;;;10.15;8.80;;;;;;;;;;4983435;28;20124;-63
2023/05/22 01:24:36;;;;;;;9.60;8.60;;;;;;;;;;4985441;28;20522;-63
2023/05/22 01:27:09;;;;;;;;;;;;;;;;;;5011810;28;20034;-64
2023/05/22 01:29:45;;;;;;;9.35;8.07;;;;;;;;;;5006295;28;19922;-62
2023/05/22 01:32:14;;;;;;;10.00;8.27;;;;;;;;;;4987480;28;20037;-63
2023/05/22 01:34:44;;;;;;;10.82;7.93;;;;;;;;;;5007623;28;20040;-63
2023/05/22 01:37:12;;;;;;;11.18;8.95;;;;;;;;;;5007694;28;20026;-63
2023/05/22 01:39:39;;;;;;;13.65;8.63;;;;;;;;;;4983189;28;20045;-63
2023/05/22 01:42:04;;;;;;;10.73;8.32;;;;;;;;;;5007213;28;20037;-63
2023/05/22 01:44:32;;;;;;;12.50;9.20;;;;;;;;;;5007544;28;20127;-63
2023/05/22 01:47:03;;;;;;;10.98;8.88;;;;;;;;;;4990086;28;20836;-64
2023/05/22 01:49:30;;;;;;;10.25;8.80;;;;;;;;;;4978517;28;20050;-63
2023/05/22 01:52:01;;;;;;;12.13;8.80;;;;;;;;;;4990423;28;20041;-64
2023/05/22 01:54:37;;;;;;;11.75;9.00;;;;;;;;;;5005609;28;20037;-64
2023/05/22 01:57:11;;;;;;;11.40;8.25;;;;;;;;;;5001699;28;20045;-63
2023/05/22 01:59:48;;;;;;;11.85;9.38;;;;;;;;;;5005942;28;20117;-64
2023/05/22 02:02:17;;;;;;;10.77;9.18;;;;;;;;;;4987836;28;20037;-63
2023/05/22 02:04:51;;;;;;;11.85;10.13;;;;;;;;;;4989519;28;20029;-64
2023/05/22 02:07:20;;;;;;;11.82;9.23;;;;;;;;;;4983383;28;20417;-63
2023/05/22 02:09:48;;;;;;;9.93;8.63;;;;;;;;;;5006687;28;20069;-63
2023/05/22 02:12:14;;;;;;;11.98;9.18;;;;;;;;;;5012394;28;20129;-63
2023/05/22 02:14:41;;;;;;;11.77;8.88;;;;;;;;;;4983272;28;20796;-64
2023/05/22 02:17:07;;;;;;;11.57;9.05;;;;;;;;;;4986721;28;20099;-63
2023/05/22 02:19:34;;;;;;;16.08;10.13;;;;;;;;;;5005944;28;20482;-62
2023/05/22 02:22:00;;;;;;;12.65;9.27;;;;;;;;;;5005961;28;20034;-63
2023/05/22 02:24:26;;;;;;;11.68;8.85;;;;;;;;;;5003129;28;20104;-64
2023/05/22 02:26:52;;;;;;;11.73;8.82;;;;;;;;;;4987341;28;20065;-63
2023/05/22 02:29:18;;;;;;;10.57;9.38;;;;;;;;;;5005052;28;20469;-63
2023/05/22 02:31:43;;;;;;;11.15;8.48;;;;;;;;;;4986558;28;20184;-63
2023/05/22 02:34:09;;;;;;;9.90;8.15;;;;;;;;;;4995637;28;20092;-62
2023/05/22 02:36:36;;;;;;;11.68;8.52;;;;;;;;;;4986544;28;20034;-63
2023/05/22 02:39:02;;;;;;;9.60;8.50;;;;;;;;;;4982236;28;20125;-63
2023/05/22 02:41:28;;;;;;;10.18;8.32;;;;;;;;;;4992559;28;20152;-63
2023/05/22 02:43:54;;;;;;;13.77;9.48;;;;;;;;;;4992785;28;20040;-62
2023/05/22 02:46:20;;;;;;;10.60;8.20;;;;;;;;;;4994221;28;20092;-64
2023/05/22 02:48:47;;;;;;;13.45;9.48;;;;;;;;;;4983182;28;20084;-64
2023/05/22 02:51:12;;;;;;;9.70;8.60;;;;;;;;;;4992470;28;20038;-62
2023/05/22 02:53:40;;;;;;;10.30;7.53;;;;;;;;;;5010460;28;20091;-61
2023/05/22 02:56:11;;;;;;;9.77;8.57;;;;;;;;;;4987577;28;20521;-63
2023/05/22 02:58:38;;;;;;;10.93;8.93;;;;;;;;;;4994240;28;20041;-64
2023/05/22 03:01:07;;;;;;;16.60;8.23;;;;;;;;;;5000683;28;20116;-63
2023/05/22 03:03:33;;;;;;;9.10;7.38;;;;;;;;;;4988678;28;20037;-63
2023/05/22 03:06:00;;;;;;;9.07;7.45;;;;;;;;;;4987568;28;20567;-63
2023/05/22 03:08:30;;;;;;;11.55;8.57;;;;;;;;;;5006652;28;20033;-64
2023/05/22 03:10:57;;;;;;;10.68;8.15;;;;;;;;;;4988438;28;20042;-63
2023/05/22 03:13:23;;;;;;;12.90;8.93;;;;;;;;;;4986539;28;20036;-64
2023/05/22 03:15:49;;;;;;;10.73;9.10;;;;;;;;;;4979907;28;20034;-63
2023/05/22 03:18:15;;;;;;;10.68;8.10;;;;;;;;;;4991070;28;20726;-64
2023/05/22 03:20:42;;;;;;;9.88;8.18;;;;;;;;;;4984376;28;20034;-66
2023/05/22 03:23:10;;;;;;;9.43;8.45;;;;;;;;;;5012053;28;20034;-66
2023/05/22 03:25:35;;;;;;;10.35;7.95;;;;;;;;;;4988806;28;20029;-66
2023/05/22 03:28:01;;;;;;;9.73;8.48;;;;;;;;;;4991563;28;20061;-66
2023/05/22 03:30:31;;;;;;;10.73;8.70;;;;;;;;;;4991276;28;20053;-66
2023/05/22 03:33:13;;;;;;;11.38;8.13;;;;;;;;;;4985013;28;20501;-66
2023/05/22 03:35:38;;;;;;;13.45;7.95;;;;;;;;;;5005774;28;20068;-66
2023/05/22 03:38:04;;;;;;;15.32;8.20;;;;;;;;;;4982070;28;20041;-66
2023/05/22 03:40:30;;;;;;;11.13;9.07;;;;;;;;;;5005425;28;20068;-66
2023/05/22 03:42:55;;;;;;;10.30;8.90;;;;;;;;;;4985441;28;20061;-66
2023/05/22 03:45:23;;;;;;;10.43;9.02;;;;;;;;;;4990000;28;20125;-66
2023/05/22 03:47:48;;;;;;;11.68;9.43;;;;;;;;;;4989261;28;20095;-66
2023/05/22 03:50:14;;;;;;;9.43;8.27;;;;;;;;;;4991239;28;20050;-66
2023/05/22 03:52:40;;;;;;;11.10;8.77;;;;;;;;;;4991102;28;20649;-66
2023/05/22 03:55:06;;;;;;;11.70;9.20;;;;;;;;;;4989363;28;20493;-66
2023/05/22 03:57:32;;;;;;;10.93;8.52;;;;;;;;;;4986870;28;20448;-66
2023/05/22 04:00:05;;;;;;;9.80;8.52;;;;;;;;;;4994292;28;20549;-66
2023/05/22 04:02:38;;;;;;;13.20;9.15;;;;;;;;;;4991481;28;20165;-66
2023/05/22 04:05:08;;;;;;;10.73;7.85;;;;;;;;;;4990471;28;20681;-66
2023/05/22 04:07:33;;;;;;;11.05;9.57;;;;;;;;;;4979394;28;20042;-66
2023/05/22 04:09:59;;;;;;;10.27;8.68;;;;;;;;;;4988996;28;20045;-66
2023/05/22 04:12:25;;;;;;;17.63;9.27;;;;;;;;;;4986090;28;20053;-66
2023/05/22 04:14:50;;;;;;;11.13;9.18;;;;;;;;;;4988991;28;20045;-66
2023/05/22 04:17:16;;;;;;;11.35;9.65;;;;;;;;;;4982072;28;20030;-66
2023/05/22 04:19:41;;;;;;;10.77;8.65;;;;;;;;;;4998712;28;20048;-66
2023/05/22 04:22:07;;;;;;;10.90;9.70;;;;;;;;;;4984144;28;20037;-65
2023/05/22 04:24:32;;;;;;;10.48;9.38;;;;;;;;;;4975789;28;20128;-66
2023/05/22 04:26:59;;;;;;;11.30;9.43;;;;;;;;;;4987991;28;20116;-66
2023/05/22 04:29:25;;;;;;;13.98;10.15;;;;;;;;;;5003779;28;20099;-66
2023/05/22 04:31:53;;;;;;;9.60;8.60;;;;;;;;;;4988827;28;20040;-66
2023/05/22 04:34:19;;;;;;;14.13;9.18;;;;;;;;;;4983264;28;20069;-65
2023/05/22 04:36:45;;;;;;;11.45;9.63;;;;;;;;;;4990150;28;20066;-66
2023/05/22 04:39:12;;;;;;;12.52;10.00;;;;;;;;;;5007445;28;20136;-66
2023/05/22 04:41:39;;;;;;;11.48;9.18;;;;;;;;;;5007880;28;20033;-65
2023/05/22 04:44:05;;;;;;;11.23;9.63;;;;;;;;;;4991971;28;20395;-66
2023/05/22 04:46:33;;;;;;;11.07;9.15;;;;;;;;;;5002431;28;20026;-66
2023/05/22 04:49:00;;;;;;;9.98;8.98;;;;;;;;;;4981510;28;20053;-66
2023/05/22 04:51:27;;;;;;;13.23;9.25;;;;;;;;;;4984397;28;20080;-66
2023/05/22 04:53:54;;;;;;;10.68;8.25;;;;;;;;;;5002957;28;20488;-66
2023/05/22 04:56:23;;;;;;;9.52;8.57;;;;;;;;;;4988908;28;20053;-66
2023/05/22 04:58:49;;;;;;;11.75;9.23;;;;;;;;;;5002294;28;20049;-66
2023/05/22 05:01:18;;;;;;;9.70;8.63;;;;;;;;;;4985345;28;20314;-66
2023/05/22 05:03:44;;;;;;;10.23;8.88;;;;;;;;;;4988689;28;20041;-66
2023/05/22 05:06:11;;;;;;;11.32;9.05;;;;;;;;;;4978122;28;20057;-66
2023/05/22 05:08:37;;;;;;;9.80;8.27;;;;;;;;;;4977022;28;20418;-66
2023/05/22 05:11:03;;;;;;;8.90;8.00;;;;;;;;;;4989457;28;20321;-66
2023/05/22 05:13:28;;;;;;;11.25;8.35;;;;;;;;;;4962382;28;20034;-66
2023/05/22 05:15:54;;;;;;;9.77;8.50;;;;;;;;;;4970402;28;20316;-66
2023/05/22 05:18:21;;;;;;;13.25;8.65;;;;;;;;;;4970485;28;20038;-66
2023/05/22 05:20:47;;;;;;;9.10;7.93;;;;;;;;;;4987366;28;20408;-66
2023/05/22 05:23:12;;;;;;;15.10;8.07;;;;;;;;;;4986330;28;20123;-66
2023/05/22 05:25:38;;;;;;;8.85;7.95;;;;;;;;;;4982447;28;20034;-66
2023/05/22 05:28:09;;;;;;;9.32;7.00;;;;;;;;;;4983321;28;20044;-66
2023/05/22 05:30:39;;;;;;;9.20;8.20;;;;;;;;;;5005119;28;20072;-66
2023/05/22 05:33:31;;;;;;;10.45;8.10;;;;;;;;;;4979795;28;20401;-66
2023/05/22 05:36:24;;;;;;;10.63;8.75;;;;;;;;;;4997524;28;20045;-66
2023/05/22 05:38:50;;;;;;;10.05;7.55;;;;;;;;;;4985083;28;20045;-66
2023/05/22 05:41:15;;;;;;;14.02;8.20;;;;;;;;;;4981646;28;20040;-66
2023/05/22 05:43:43;;;;;;;9.50;8.50;;;;;;;;;;4982323;28;20034;-66
2023/05/22 05:46:10;;;;;;;8.63;7.80;;;;;;;;;;4985036;28;20164;-66
2023/05/22 05:48:36;;;;;;;11.38;8.23;;;;;;;;;;4981014;28;20129;-66
2023/05/22 05:51:02;;;;;;;9.60;8.38;;;;;;;;;;4984290;28;20089;-66
2023/05/22 05:53:31;;;;;;;8.98;8.07;;;;;;;;;;4980113;28;20088;-66
2023/05/22 05:55:58;;;;;;;9.45;8.45;;;;;;;;;;4968889;28;20109;-66
2023/05/22 05:58:24;;;;;;;9.40;7.57;;;;;;;;;;4982196;28;21393;-66
2023/05/22 06:00:59;;;;;;;11.82;7.75;;;;;;;;;;4985439;28;20034;-66
2023/05/22 06:03:25;;;;;;;10.98;8.60;;;;;;;;;;4982673;28;20034;-67
2023/05/22 06:06:02;;;;;;;8.70;7.80;;;;;;;;;;4982434;28;20046;-66
2023/05/22 06:08:53;;;;;;;9.95;7.90;;;;;;;;;;4994884;28;20125;-66
2023/05/22 06:11:26;;;;;;;9.20;7.68;;;;;;;;;;4987071;28;20121;-66
2023/05/22 06:13:53;;;;;;;7.15;6.38;;;;;;;;;;4983212;28;20056;-66
2023/05/22 06:16:19;;;;;;;7.93;7.13;;;;;;;;;;4977911;28;20410;-66
2023/05/22 06:18:45;;;;;;;9.75;7.55;;;;;;;;;;4999128;28;20034;-66
2023/05/22 06:21:11;;;;;;;9.80;8.00;;;;;;;;;;4982069;28;20034;-66
2023/05/22 06:23:36;;;;;;;10.02;7.57;;;;;;;;;;4980220;28;20031;-66
2023/05/22 06:26:03;;;;;;;8.30;6.82;;;;;;;;;;4984596;28;20489;-66
2023/05/22 06:28:30;;;;;;;14.23;7.75;;;;;;;;;;4980264;28;20057;-66
2023/05/22 06:30:56;;;;;;;10.70;7.90;;;;;;;;;;4981769;28;20513;-66
2023/05/22 06:33:22;;;;;;;9.50;7.78;;;;;;;;;;4974475;28;20046;-66
2023/05/22 06:35:48;;;;;;;8.02;6.97;;;;;;;;;;4977144;28;20049;-66
2023/05/22 06:38:15;;;;;;;10.20;7.70;;;;;;;;;;4980938;28;20352;-66
2023/05/22 06:40:42;;;;;;;10.88;7.40;;;;;;;;;;4980847;28;20068;-66
2023/05/22 06:43:13;;;;;;;14.07;7.40;;;;;;;;;;4985103;28;20126;-66
2023/05/22 06:45:52;;;;;;;10.65;8.45;;;;;;;;;;4981410;28;20320;-66
2023/05/22 06:48:36;;;;;;;9.02;8.13;;;;;;;;;;5006639;28;20041;-66
2023/05/22 06:51:10;;;;;;;13.20;9.05;;;;;;;;;;4986967;28;20042;-66
2023/05/22 06:53:36;;;;;;;11.65;7.82;;;;;;;;;;4989461;28;20045;-66
2023/05/22 06:56:02;;;;;;;10.07;8.45;;;;;;;;;;4989965;28;20100;-66
2023/05/22 06:58:43;;;;;;;13.15;8.05;;;;;;;;;;4990707;28;20540;-66
2023/05/22 07:01:09;;;;;;;12.90;8.48;;;;;;;;;;4991344;28;20030;-66
2023/05/22 07:03:41;;;;;;;10.75;8.18;;;;;;;;;;4973238;28;20516;-66
2023/05/22 07:06:26;;;;;;;8.90;7.65;;;;;;;;;;5000982;28;20398;-66
2023/05/22 07:08:52;;;;;;;11.43;8.07;;;;;;;;;;4988848;28;20121;-66
2023/05/22 07:11:18;;;;;;;13.80;8.85;;;;;;;;;;4984635;28;20085;-66
2023/05/22 07:13:44;;;;;;;9.82;8.23;;;;;;;;;;4991541;28;20048;-66
2023/05/22 07:16:10;;;;;;;10.25;8.70;;;;;;;;;;4985740;28;20042;-66
2023/05/22 07:18:37;;;;;;;11.63;7.70;;;;;;;;;;4971686;28;20042;-66
2023/05/22 07:21:03;;;;;;;12.55;9.38;;;;;;;;;;4983404;28;20481;-66
2023/05/22 07:23:29;;;;;;;14.65;9.00;;;;;;;;;;4984544;28;20038;-66
2023/05/22 07:25:54;;;;;;;10.63;9.05;;;;;;;;;;4972861;28;20061;-66
2023/05/22 07:28:24;;;;;;;10.35;8.55;;;;;;;;;;4983482;28;20116;-66
2023/05/22 07:30:57;;;;;;;11.38;8.15;;;;;;;;;;4990304;28;20597;-66
2023/05/22 07:33:24;;;;;;;10.38;8.27;;;;;;;;;;4989342;28;20285;-66
2023/05/22 07:35:50;;;;;;;12.90;8.10;;;;;;;;;;4989259;28;20045;-66
2023/05/22 07:38:17;;;;;;;9.95;7.97;;;;;;;;;;4983413;28;20098;-66
2023/05/22 07:40:50;;;;;;;9.73;8.45;;;;;;;;;;4990978;28;20091;-66
2023/05/22 07:43:16;;;;;;;12.13;9.55;;;;;;;;;;4985236;28;20030;-67
2023/05/22 07:45:43;;;;;;;10.40;8.27;;;;;;;;;;4981872;28;20600;-67
2023/05/22 07:48:11;;;;;;;9.25;8.00;;;;;;;;;;4981692;28;20474;-64
2023/05/22 07:50:37;;;;;;;11.07;8.40;;;;;;;;;;4989753;28;20123;-66
2023/05/22 07:53:03;;;;;;;9.00;7.95;;;;;;;;;;5003763;28;20029;-66
2023/05/22 07:55:31;;;;;;;11.68;7.60;;;;;;;;;;4985257;28;20038;-66
2023/05/22 07:57:58;;;;;;;9.60;7.80;;;;;;;;;;4977010;28;20120;-66
2023/05/22 08:00:32;;;;;;;10.32;7.68;;;;;;;;;;4990407;28;20042;-66
2023/05/22 08:02:57;;;;;;;8.70;7.75;;;;;;;;;;5006427;28;20056;-66
2023/05/22 08:05:23;;;;;;;10.07;8.00;;;;;;;;;;5004760;28;20418;-66
2023/05/22 08:07:48;;;;;;;9.57;7.72;;;;;;;;;;5003343;28;20120;-66
2023/05/22 08:10:15;;;;;;;9.80;8.10;;;;;;;;;;5006555;28;20052;-66
2023/05/22 08:12:41;;;;;;;10.50;7.05;;;;;;;;;;4998435;28;20036;-66
2023/05/22 08:15:07;;;;;;;9.02;7.72;;;;;;;;;;5001015;28;20110;-66
2023/05/22 08:17:33;;;;;;;8.63;7.45;;;;;;;;;;5003301;28;20038;-66
2023/05/22 08:19:58;;;;;;;8.55;6.80;;;;;;;;;;5005425;28;20038;-66
2023/05/22 08:22:24;;;;;;;9.57;7.30;;;;;;;;;;4997068;28;20128;-66
2023/05/22 08:24:50;;;;;;;9.00;7.75;;;;;;;;;;5001829;28;20046;-66
2023/05/22 08:27:15;;;;;;;12.15;8.20;;;;;;;;;;5002934;28;20033;-66
2023/05/22 08:29:41;;;;;;;8.07;7.25;;;;;;;;;;5007733;28;20041;-67
2023/05/22 08:32:06;;;;;;;10.90;8.38;;;;;;;;;;5003082;28;20042;-66
2023/05/22 08:34:32;;;;;;;14.73;9.05;;;;;;;;;;5003795;28;20041;-66
2023/05/22 08:36:58;;;;;;;12.07;8.57;;;;;;;;;;5005270;28;20037;-66
2023/05/22 08:39:24;;;;;;;11.70;8.13;;;;;;;;;;5002596;28;20543;-66
2023/05/22 08:41:50;;;;;;;9.95;7.55;;;;;;;;;;5002772;28;20046;-66
2023/05/22 08:44:16;;;;;;;13.07;8.10;;;;;;;;;;5002971;28;20504;-66
2023/05/22 08:46:42;;;;;;;8.90;8.00;;;;;;;;;;4997407;28;20500;-66
2023/05/22 08:49:09;;;;;;;12.00;8.18;;;;;;;;;;5003528;28;20116;-66
2023/05/22 08:51:41;;;;;;;8.52;7.65;;;;;;;;;;4988007;28;20041;-66
2023/05/22 08:54:07;;;;;;;9.38;7.13;;;;;;;;;;5002346;28;20330;-66
2023/05/22 08:56:34;;;;;;;14.25;7.85;;;;;;;;;;4989723;28;20037;-66
2023/05/22 08:59:00;;;;;;;12.55;8.00;;;;;;;;;;4995041;28;20379;-66
2023/05/22 09:01:27;;;;;;;9.93;7.90;;;;;;;;;;4998650;28;20026;-66
2023/05/22 09:03:59;;;;;;;11.88;8.05;;;;;;;;;;4999618;28;20045;-66
2023/05/22 09:06:24;;;;;;;10.10;8.10;;;;;;;;;;5000687;28;20091;-66
2023/05/22 09:08:52;;;;;;;9.82;7.88;;;;;;;;;;5000284;28;20120;-66
2023/05/22 09:11:17;;;;;;;14.55;9.13;;;;;;;;;;4994360;28;20041;-66
2023/05/22 09:13:43;;;;;;;11.05;8.50;;;;;;;;;;5005692;28;20037;-66
2023/05/22 09:16:11;;;;;;;13.20;9.60;;;;;;;;;;4994463;28;20049;-66
2023/05/22 09:18:37;;;;;;;11.52;9.07;;;;;;;;;;4999643;28;20041;-66
2023/05/22 09:21:05;;;;;;;11.23;8.63;;;;;;;;;;5000956;28;20041;-66
2023/05/22 09:23:31;;;;;;;13.20;8.55;;;;;;;;;;4998000;28;20038;-66
2023/05/22 09:25:58;;;;;;;15.20;8.07;;;;;;;;;;4997651;28;20164;-66
2023/05/22 09:28:24;;;;;;;10.70;8.27;;;;;;;;;;5004130;28;20358;-66
2023/05/22 09:30:51;;;;;;;12.95;8.95;;;;;;;;;;5001471;28;20139;-66
2023/05/22 09:33:17;;;;;;;12.90;8.95;;;;;;;;;;4998471;28;20371;-66
2023/05/22 09:35:45;;;;;;;9.60;8.45;;;;;;;;;;5002427;28;20053;-66
2023/05/22 09:38:12;;;;;;;12.43;10.00;;;;;;;;;;5000346;28;20044;-66
2023/05/22 09:40:39;;;;;;;12.80;10.15;;;;;;;;;;5002393;28;20026;-66
2023/05/22 09:43:11;;;;;;;12.20;9.73;;;;;;;;;;5000011;28;20061;-66
2023/05/22 09:45:38;;;;;;;10.13;8.57;;;;;;;;;;4997925;28;20242;-66
2023/05/22 09:48:04;;;;;;;12.70;8.63;;;;;;;;;;5000892;28;20034;-66
2023/05/22 09:50:34;;;;;;;11.73;9.25;;;;;;;;;;5001229;28;20037;-66
2023/05/22 09:53:03;;;;;;;13.68;9.80;;;;;;;;;;4995842;28;20038;-66
2023/05/22 09:55:30;;;;;;;11.77;8.95;;;;;;;;;;4998348;28;20033;-66
2023/05/22 09:57:57;;;;;;;10.52;8.27;;;;;;;;;;5003423;28;20038;-66
2023/05/22 10:00:24;;;;;;;9.85;8.38;;;;;;;;;;4998582;28;20037;-66
2023/05/22 10:02:57;;;;;;;11.82;9.00;;;;;;;;;;5000197;28;20452;-66
2023/05/22 10:05:30;;;;;;;8.63;7.43;;;;;;;;;;4995373;28;20401;-66
2023/05/22 10:08:07;;;;;;;13.77;8.60;;;;;;;;;;4997170;28;20125;-66
2023/05/22 10:10:34;;;;;;;9.02;7.72;;;;;;;;;;4996730;28;20490;-66
2023/05/22 10:13:02;;;;;;;10.73;8.75;;;;;;;;;;5002761;28;20635;-66
2023/05/22 10:15:29;;;;;;;11.55;9.02;;;;;;;;;;4993849;28;20040;-66
2023/05/22 10:17:55;;;;;;;13.88;8.60;;;;;;;;;;4998067;28;20042;-66
2023/05/22 10:20:21;;;;;;;10.25;8.13;;;;;;;;;;4995759;28;20037;-66
2023/05/22 10:22:49;;;;;;;10.65;8.43;;;;;;;;;;4997512;28;20029;-66
2023/05/22 10:25:17;;;;;;;8.65;7.35;;;;;;;;;;5004197;28;20101;-66
2023/05/22 10:27:43;;;;;;;8.55;7.32;;;;;;;;;;4998895;28;20413;-66
2023/05/22 10:30:35;;;;;;;9.25;8.20;;;;;;;;;;4987715;28;20117;-66
2023/05/22 10:33:30;;;;;;;10.75;8.15;;;;;;;;;;5008313;28;20052;-66
2023/05/22 10:36:04;;;;;;;10.32;8.15;;;;;;;;;;5001584;28;20409;-66
2023/05/22 10:38:53;;;;;;;12.00;7.95;;;;;;;;;;5002792;28;20443;-67
2023/05/22 10:41:18;;;;;;;10.27;8.35;;;;;;;;;;5005763;28;20108;-66
2023/05/22 10:43:47;;;;;;;11.68;7.80;;;;;;;;;;4997625;28;20037;-66
2023/05/22 10:46:13;;;;;;;9.02;7.25;;;;;;;;;;5000558;28;20041;-66
2023/05/22 10:48:46;;;;;;;10.57;7.55;;;;;;;;;;5000501;28;20034;-66
2023/05/22 10:51:13;;;;;;;9.85;7.95;;;;;;;;;;5002187;28;20048;-66
2023/05/22 10:53:41;;;;;;;10.05;7.32;;;;;;;;;;5000514;28;20046;-66
2023/05/22 10:56:15;;;;;;;12.93;7.75;;;;;;;;;;5001997;28;20076;-66
2023/05/22 10:58:58;;;;;;;10.35;8.45;;;;;;;;;;4997993;28;20646;-65
2023/05/22 11:01:26;;;;;;;9.27;7.63;;;;;;;;;;4998318;28;20281;-65
2023/05/22 11:04:08;;;;;;;12.13;8.75;;;;;;;;;;4988547;28;20045;-66
2023/05/22 11:06:45;;;;;;;12.90;7.97;;;;;;;;;;4981199;28;20038;-66
2023/05/22 11:09:46;;;;;;;9.20;7.68;;;;;;;;;;5007536;28;20164;-66
2023/05/22 11:12:26;;;;;;;11.43;7.82;;;;;;;;;;4969430;28;20117;-66
2023/05/22 11:14:57;;;;;;;10.07;7.22;;;;;;;;;;5001771;28;20037;-66
2023/05/22 11:17:26;;;;;;;8.20;7.40;;;;;;;;;;5001760;28;20104;-66
2023/05/22 11:20:05;;;;;;;9.88;7.28;;;;;;;;;;4995949;28;20034;-66
2023/05/22 11:22:33;;;;;;;7.68;6.75;;;;;;;;;;5002239;28;20041;-66
2023/05/22 11:25:02;;;;;;;8.48;7.22;;;;;;;;;;4999796;28;20478;-66
2023/05/22 11:27:28;;;;;;;8.38;7.45;;;;;;;;;;5000671;28;20037;-66
2023/05/22 11:29:55;;;;;;;9.02;7.65;;;;;;;;;;4999275;28;20044;-66
2023/05/22 11:32:23;;;;;;;10.80;7.10;;;;;;;;;;4999441;28;20029;-66
2023/05/22 11:34:49;;;;;;;9.17;6.97;;;;;;;;;;5000783;28;20405;-66
2023/05/22 11:37:18;;;;;;;7.20;6.47;;;;;;;;;;5007352;28;20292;-66
2023/05/22 11:40:12;;;;;;;7.85;6.90;;;;;;;;;;4996243;28;20026;-66
2023/05/22 11:42:37;;;;;;;8.32;7.35;;;;;;;;;;5004051;28;20053;-66
2023/05/22 11:45:04;;;;;;;8.93;7.28;;;;;;;;;;4972708;28;20112;-66
2023/05/22 11:47:32;;;;;;;8.77;7.22;;;;;;;;;;4997106;28;20060;-66
2023/05/22 11:49:58;;;;;;;7.40;6.70;;;;;;;;;;4987080;28;20037;-66
2023/05/22 11:52:24;;;;;;;8.65;7.47;;;;;;;;;;5005943;28;20038;-65
2023/05/22 11:54:51;;;;;;;9.13;6.72;;;;;;;;;;4999923;28;20042;-66
2023/05/22 11:57:18;;;;;;;9.05;7.07;;;;;;;;;;5005623;28;20504;-66
2023/05/22 11:59:47;;;;;;;8.20;6.57;;;;;;;;;;5008759;28;20045;-66
2023/05/22 12:02:15;;;;;;;9.48;6.72;;;;;;;;;;4967870;28;20217;-66
2023/05/22 12:04:41;;;;;;;8.80;7.10;;;;;;;;;;4982405;28;20038;-66
2023/05/22 12:07:07;;;;;;;9.05;7.18;;;;;;;;;;5001848;28;20109;-66
2023/05/22 12:09:33;;;;;;;8.23;6.50;;;;;;;;;;5001688;28;20501;-66
2023/05/22 12:11:59;;;;;;;8.20;7.38;;;;;;;;;;5002803;28;20387;-66
2023/05/22 12:14:29;;;;;;;7.75;6.55;;;;;;;;;;4999382;28;20044;-66
2023/05/22 12:16:57;;;;;;;7.82;7.03;;;;;;;;;;5004109;28;20460;-64
2023/05/22 12:19:24;;;;;;;7.03;6.32;;;;;;;;;;4979711;28;20053;-64
2023/05/22 12:21:50;;;;;;;7.63;6.82;;;;;;;;;;5004711;28;20038;-64
2023/05/22 12:24:22;;;;;;;7.38;6.68;;;;;;;;;;5006181;28;20158;-64
2023/05/22 12:26:54;;;;;;;7.43;6.45;;;;;;;;;;5006165;28;20037;-64
2023/05/22 12:29:23;;;;;;;7.80;6.95;;;;;;;;;;5001456;28;20029;-64
2023/05/22 12:31:50;;;;;;;7.85;7.13;;;;;;;;;;5002805;28;20113;-64
2023/05/22 12:34:17;;;;;;;8.38;6.90;;;;;;;;;;4985676;28;20045;-64
2023/05/22 12:36:44;;;;;;;9.40;7.22;;;;;;;;;;5000506;28;20116;-67
2023/05/22 12:39:17;;;;;;;7.35;6.65;;;;;;;;;;4995213;28;20026;-66
2023/05/22 12:41:45;;;;;;;7.95;7.18;;;;;;;;;;5005648;28;20052;-66
2023/05/22 12:44:13;;;;;;;7.82;6.88;;;;;;;;;;4993211;28;20038;-66
2023/05/22 12:46:39;;;;;;;7.80;7.00;;;;;;;;;;5001991;28;20060;-66
2023/05/22 12:49:05;;;;;;;8.75;6.90;;;;;;;;;;4998478;28;20092;-66
2023/05/22 12:51:31;;;;;;;7.68;6.97;;;;;;;;;;5005666;28;20050;-66
2023/05/22 12:54:00;;;;;;;8.23;7.38;;;;;;;;;;4996397;28;20040;-66
2023/05/22 12:56:28;;;;;;;9.48;7.35;;;;;;;;;;4998082;28;20041;-66
2023/05/22 12:58:56;;;;;;;7.63;6.93;;;;;;;;;;5000524;28;20096;-66
2023/05/22 13:01:23;;;;;;;10.85;7.28;;;;;;;;;;5000795;28;20065;-66
2023/05/22 13:03:50;;;;;;;8.32;7.13;;;;;;;;;;4998686;28;20042;-66
2023/05/22 13:06:15;;;;;;;7.75;7.03;;;;;;;;;;4996159;28;20040;-66
2023/05/22 13:08:41;;;;;;;8.32;7.43;;;;;;;;;;5003749;28;20033;-66
2023/05/22 13:11:08;;;;;;;6.90;6.30;;;;;;;;;;5001798;28;20034;-66
2023/05/22 13:13:33;;;;;;;9.65;7.32;;;;;;;;;;5001865;28;20098;-66
2023/05/22 13:15:59;;;;;;;8.60;7.43;;;;;;;;;;4994625;28;20030;-66
2023/05/22 13:18:24;;;;;;;7.32;6.63;;;;;;;;;;5004194;28;20313;-66
2023/05/22 13:20:50;;;;;;;8.50;7.47;;;;;;;;;;5001918;28;20052;-66
2023/05/22 13:23:16;;;;;;;8.00;7.20;;;;;;;;;;4994783;28;20038;-66
2023/05/22 13:25:41;;;;;;;8.57;6.68;;;;;;;;;;4999105;28;20037;-66
2023/05/22 13:28:07;;;;;;;7.72;6.97;;;;;;;;;;4998651;28;20036;-65
2023/05/22 13:30:32;;;;;;;7.85;7.05;;;;;;;;;;4994996;28;20041;-66
2023/05/22 13:32:58;;;;;;;9.65;7.05;;;;;;;;;;4992018;28;20038;-65
2023/05/22 13:35:24;;;;;;;8.95;8.05;;;;;;;;;;5003373;28;20044;-65
2023/05/22 13:37:49;;;;;;;8.20;7.40;;;;;;;;;;5001438;28;20574;-66
2023/05/22 13:40:16;;;;;;;7.78;6.97;;;;;;;;;;5003630;28;20085;-65
2023/05/22 13:42:42;;;;;;;8.93;7.38;;;;;;;;;;4999797;28;20038;-65
2023/05/22 13:45:08;;;;;;;8.13;7.32;;;;;;;;;;5001775;28;20523;-65
2023/05/22 13:47:34;;;;;;;10.35;7.50;;;;;;;;;;4997159;28;20037;-65
2023/05/22 13:49:59;;;;;;;8.38;7.28;;;;;;;;;;4999124;28;20068;-65
2023/05/22 13:52:26;;;;;;;8.30;7.45;;;;;;;;;;4995799;28;20053;-65
2023/05/22 13:54:52;;;;;;;10.45;7.53;;;;;;;;;;4983067;28;20038;-65
2023/05/22 13:57:17;;;;;;;9.88;7.72;;;;;;;;;;5002958;28;20044;-65
2023/05/22 13:59:43;;;;;;;8.10;7.10;;;;;;;;;;4982890;28;20041;-65
2023/05/22 14:02:08;;;;;;;10.07;7.88;;;;;;;;;;4990159;28;20087;-65
2023/05/22 14:04:34;;;;;;;8.93;7.53;;;;;;;;;;5004646;28;20037;-65
2023/05/22 14:07:00;;;;;;;9.70;7.60;;;;;;;;;;5004289;28;20509;-65
2023/05/22 14:09:26;;;;;;;8.55;7.75;;;;;;;;;;4985515;28;20049;-65
2023/05/22 14:11:51;;;;;;;9.55;7.72;;;;;;;;;;5007186;28;20130;-65
2023/05/22 14:14:22;;;;;;;9.93;7.90;;;;;;;;;;5003920;28;20077;-65
2023/05/22 14:16:51;;;;;;;8.98;8.00;;;;;;;;;;5003924;28;20112;-65
2023/05/22 14:19:18;;;;;;;8.85;7.53;;;;;;;;;;5007603;28;20084;-65
2023/05/22 14:21:46;;;;;;;8.65;7.72;;;;;;;;;;5002430;28;20402;-65
2023/05/22 14:24:11;;;;;;;11.25;7.22;;;;;;;;;;5004840;28;20038;-65
2023/05/22 14:26:37;;;;;;;9.32;7.97;;;;;;;;;;4997384;28;20034;-65
2023/05/22 14:29:03;;;;;;;10.10;8.35;;;;;;;;;;4992080;28;20398;-65
2023/05/22 14:31:29;;;;;;;9.60;8.45;;;;;;;;;;5000835;28;20679;-64
2023/05/22 14:33:54;;;;;;;9.55;8.60;;;;;;;;;;5008720;28;20038;-64
2023/05/22 14:36:20;;;;;;;10.45;8.73;;;;;;;;;;4997528;28;20299;-65
2023/05/22 14:38:45;;;;;;;9.35;8.40;;;;;;;;;;5003227;28;20489;-64
2023/05/22 14:41:11;;;;;;;10.93;8.55;;;;;;;;;;4997416;28;20022;-65